Time;durP1;ratioP1;P1;durP2;ratioP2;P2;SDS_P1;SDS_P2;PMS_P1;PMS_P2;Temp;Humidity;BMP_temperature;BMP_pressure;BME280_temperature;BME280_humidity;BME280_pressure;Samples;Min_cycle;Max_cycle;Signal;HPM_P1;HPM_P2
2023/01/24 00:00:26;;;;;;;8.87;6.17;;;;;;;6.01;100.00;103191.25;2090759;28;20201;-61
2023/01/24 00:01:26;;;;;;;8.63;5.83;;;;;;;6.09;100.00;103176.56;2094672;28;20257;-61
2023/01/24 00:02:27;;;;;;;10.37;5.97;;;;;;;6.11;100.00;103179.78;2087526;28;20663;-61
2023/01/24 00:03:27;;;;;;;10.53;5.50;;;;;;;5.90;100.00;103174.31;2088804;28;20207;-61
2023/01/24 00:04:27;;;;;;;9.63;6.00;;;;;;;6.11;100.00;103182.53;2087878;28;20671;-61
2023/01/24 00:05:28;;;;;;;8.67;5.73;;;;;;;5.35;100.00;103077.59;2094256;28;20218;-61
2023/01/24 00:06:28;;;;;;;6.90;5.13;;;;;;;6.02;100.00;103182.66;2091390;28;20191;-61
2023/01/24 00:07:29;;;;;;;6.47;4.43;;;;;;;6.13;100.00;103183.81;2092492;28;20565;-61
2023/01/24 00:08:29;;;;;;;6.47;4.57;;;;;;;6.15;100.00;103175.22;2095843;28;20175;-61
2023/01/24 00:09:30;;;;;;;6.03;4.80;;;;;;;6.14;100.00;103179.09;2096204;28;20182;-61
2023/01/24 00:10:31;;;;;;;8.57;4.80;;;;;;;6.12;100.00;103173.94;2093295;28;20278;-61
2023/01/24 00:11:32;;;;;;;7.18;4.60;;;;;;;6.10;100.00;103178.19;2088761;28;20266;-61
2023/01/24 00:12:32;;;;;;;6.10;4.80;;;;;;;6.20;100.00;103178.53;2088320;28;20187;-61
2023/01/24 00:13:34;;;;;;;7.37;4.40;;;;;;;6.08;100.00;103180.47;2089022;28;20195;-61
2023/01/24 00:14:34;;;;;;;6.50;4.15;;;;;;;5.39;100.00;103080.47;2087146;28;20653;-60
2023/01/24 00:15:35;;;;;;;5.87;4.57;;;;;;;5.99;100.00;103161.28;2088139;28;20539;-62
2023/01/24 00:16:35;;;;;;;5.93;4.63;;;;;;;6.06;100.00;103169.00;2088180;28;20188;-61
2023/01/24 00:17:36;;;;;;;6.10;4.60;;;;;;;6.11;100.00;103177.81;2088384;28;20215;-61
2023/01/24 00:18:36;;;;;;;4.87;3.97;;;;;;;5.92;100.00;103155.53;2087655;28;20289;-61
2023/01/24 00:19:37;;;;;;;5.70;4.10;;;;;;;5.93;100.00;103181.09;2088111;28;20179;-61
2023/01/24 00:20:37;;;;;;;5.73;4.07;;;;;;;5.76;100.00;103178.50;2088194;28;20645;-61
2023/01/24 00:21:38;;;;;;;6.20;4.00;;;;;;;5.64;100.00;103168.25;2094263;28;20639;-61
2023/01/24 00:22:38;;;;;;;5.33;4.10;;;;;;;5.30;100.00;103127.31;2091533;28;20269;-61
2023/01/24 00:23:43;;;;;;;6.57;4.57;;;;;;;5.63;100.00;103157.56;2091653;28;20668;-61
2023/01/24 00:24:43;;;;;;;5.30;4.28;;;;;;;5.75;100.00;103176.91;2092531;28;20286;-61
2023/01/24 00:25:44;;;;;;;8.10;4.30;;;;;;;5.82;100.00;103174.41;2089402;28;20176;-60
2023/01/24 00:26:44;;;;;;;5.70;4.40;;;;;;;5.84;100.00;103178.44;2097324;28;20208;-61
2023/01/24 00:27:44;;;;;;;8.47;3.97;;;;;;;5.86;100.00;103178.09;2090237;28;20175;-61
2023/01/24 00:28:46;;;;;;;5.53;4.37;;;;;;;5.40;100.00;103107.66;2096967;28;20210;-60
2023/01/24 00:29:47;;;;;;;5.95;4.38;;;;;;;5.89;100.00;103186.50;2091276;28;20196;-61
2023/01/24 00:30:47;;;;;;;6.00;4.60;;;;;;;5.83;100.00;103185.09;2089750;28;20188;-61
2023/01/24 00:31:47;;;;;;;6.87;4.63;;;;;;;5.87;100.00;103185.22;2089898;28;20192;-61
2023/01/24 00:32:48;;;;;;;6.37;4.83;;;;;;;5.85;100.00;103182.00;2092353;28;20620;-61
2023/01/24 00:33:48;;;;;;;7.37;4.60;;;;;;;5.70;100.00;103152.34;2096847;28;20182;-61
2023/01/24 00:34:49;;;;;;;5.87;4.57;;;;;;;5.89;100.00;103189.25;2088989;28;20183;-61
2023/01/24 00:35:51;;;;;;;5.50;4.00;;;;;;;5.88;100.00;103201.41;2098242;28;20720;-61
2023/01/24 00:36:51;;;;;;;6.70;4.10;;;;;;;5.84;100.00;103186.69;2090632;28;20230;-61
2023/01/24 00:37:52;;;;;;;5.23;4.07;;;;;;;5.89;100.00;103189.25;2089721;28;20186;-60
2023/01/24 00:38:54;;;;;;;6.13;4.30;;;;;;;5.90;100.00;103198.31;2089027;28;20222;-61
2023/01/24 00:39:55;;;;;;;6.13;4.30;;;;;;;5.56;100.00;103138.88;2089451;28;20631;-61
2023/01/24 00:40:55;;;;;;;6.50;4.50;;;;;;;5.83;100.00;103182.34;2089621;28;20172;-61
2023/01/24 00:41:56;;;;;;;6.10;4.23;;;;;;;5.87;100.00;103201.72;2089508;28;20552;-60
2023/01/24 00:42:56;;;;;;;7.87;4.53;;;;;;;5.90;100.00;103206.56;2089586;28;20180;-61
2023/01/24 00:43:56;;;;;;;7.00;4.77;;;;;;;5.91;100.00;103199.91;2090077;28;20305;-60
2023/01/24 00:44:57;;;;;;;7.30;4.30;;;;;;;5.92;100.00;103204.28;2088901;28;20192;-61
2023/01/24 00:45:57;;;;;;;6.20;4.30;;;;;;;5.95;100.00;103212.66;2095662;28;20187;-61
2023/01/24 00:46:58;;;;;;;6.07;4.43;;;;;;;5.98;100.00;103213.91;2093129;28;20221;-61
2023/01/24 00:47:58;;;;;;;6.17;4.10;;;;;;;5.98;100.00;103203.72;2090114;28;20721;-60
2023/01/24 00:49:00;;;;;;;5.20;4.20;;;;;;;6.07;100.00;103206.38;2094707;28;20176;-61
2023/01/24 00:50:00;;;;;;;7.78;4.63;;;;;;;6.11;100.00;103215.59;2090478;28;20256;-61
2023/01/24 00:51:01;;;;;;;7.07;4.83;;;;;;;6.13;100.00;103208.59;2097431;28;20241;-61
2023/01/24 00:52:01;;;;;;;5.83;4.10;;;;;;;6.11;100.00;103194.34;2097878;28;20262;-61
2023/01/24 00:53:02;;;;;;;8.07;5.23;;;;;;;6.06;100.00;103202.81;2090905;28;20253;-61
2023/01/24 00:54:03;;;;;;;6.03;4.15;;;;;;;6.06;100.00;103222.09;2095415;28;20194;-60
2023/01/24 00:55:04;;;;;;;6.40;4.07;;;;;;;6.08;100.00;103202.50;2091991;28;20279;-61
2023/01/24 00:56:05;;;;;;;6.17;4.33;;;;;;;6.10;100.00;103194.72;2089552;28;20207;-61
2023/01/24 00:57:05;;;;;;;6.47;4.27;;;;;;;6.16;100.00;103201.59;2089512;28;20171;-61
2023/01/24 00:58:06;;;;;;;6.40;4.07;;;;;;;6.17;100.00;103206.78;2089301;28;20200;-60
2023/01/24 00:59:06;;;;;;;6.80;4.10;;;;;;;6.19;100.00;103201.72;2089145;28;20180;-61
2023/01/24 01:00:08;;;;;;;5.10;4.00;;;;;;;6.15;100.00;103189.78;2089605;28;20183;-61
2023/01/24 01:01:08;;;;;;;5.18;3.92;;;;;;;6.04;100.00;103180.34;2097527;28;20282;-61
2023/01/24 01:02:09;;;;;;;6.03;3.97;;;;;;;6.22;100.00;103203.00;2092026;28;20187;-61
2023/01/24 01:03:15;;;;;;;5.67;4.33;;;;;;;6.11;100.00;103186.09;2093779;28;20187;-61
2023/01/24 01:04:15;;;;;;;7.13;4.28;;;;;;;6.22;100.00;103211.25;2093680;28;20195;-60
2023/01/24 01:05:17;;;;;;;7.37;4.30;;;;;;;6.20;100.00;103203.31;2091334;28;20656;-61
2023/01/24 01:06:17;;;;;;;5.00;3.80;;;;;;;6.26;100.00;103204.72;2097330;28;20175;-61
2023/01/24 01:07:20;;;;;;;6.70;3.97;;;;;;;6.29;100.00;103197.72;2097349;28;20208;-61
2023/01/24 01:08:20;;;;;;;7.13;4.25;;;;;;;6.34;100.00;103206.56;2089656;28;20373;-61
2023/01/24 01:09:21;;;;;;;6.73;4.20;;;;;;;6.30;100.00;103196.59;2089168;28;20677;-61
2023/01/24 01:10:21;;;;;;;6.40;3.90;;;;;;;5.48;100.00;103083.97;2089025;28;20199;-61
2023/01/24 01:11:21;;;;;;;6.13;3.93;;;;;;;6.16;100.00;103191.38;2095210;28;20179;-61
2023/01/24 01:12:22;;;;;;;4.53;3.50;;;;;;;6.25;100.00;103191.31;2093311;28;20281;-62
2023/01/24 01:13:23;;;;;;;6.80;4.37;;;;;;;6.22;100.00;103208.50;2091886;28;20265;-61
2023/01/24 01:14:23;;;;;;;5.13;3.83;;;;;;;6.15;100.00;103191.75;2099889;28;20183;-61
2023/01/24 01:15:24;;;;;;;5.93;4.30;;;;;;;6.20;100.00;103188.78;2088827;28;20252;-61
2023/01/24 01:16:24;;;;;;;6.17;4.43;;;;;;;6.16;100.00;103190.59;2089880;28;20203;-61
2023/01/24 01:17:26;;;;;;;4.90;3.80;;;;;;;5.78;100.00;103129.44;2096774;28;20188;-61
2023/01/24 01:18:27;;;;;;;5.18;3.78;;;;;;;5.96;100.00;103152.91;2090579;28;20234;-61
2023/01/24 01:19:27;;;;;;;5.50;4.00;;;;;;;5.31;100.00;103054.69;2088763;28;20195;-61
2023/01/24 01:20:28;;;;;;;5.13;4.10;;;;;;;6.20;100.00;103191.53;2089129;28;20270;-61
2023/01/24 01:21:28;;;;;;;5.33;4.13;;;;;;;6.16;100.00;103177.59;2089476;28;20219;-60
2023/01/24 01:22:28;;;;;;;5.33;3.77;;;;;;;6.26;100.00;103182.69;2089446;28;20306;-61
2023/01/24 01:23:29;;;;;;;5.30;3.83;;;;;;;6.26;100.00;103201.97;2089387;28;20246;-61
2023/01/24 01:24:30;;;;;;;6.40;4.03;;;;;;;6.21;100.00;103193.13;2097525;28;20206;-61
2023/01/24 01:25:30;;;;;;;6.53;4.20;;;;;;;6.19;100.00;103187.94;2090057;28;20200;-61
2023/01/24 01:26:31;;;;;;;5.10;3.83;;;;;;;6.18;100.00;103188.28;2088824;28;20214;-61
2023/01/24 01:27:31;;;;;;;5.77;4.23;;;;;;;6.18;100.00;103186.34;2089284;28;20188;-61
2023/01/24 01:28:32;;;;;;;6.03;3.93;;;;;;;5.74;100.00;103120.25;2088895;28;20196;-60
2023/01/24 01:29:33;;;;;;;6.23;3.90;;;;;;;6.17;100.00;103183.94;2088850;28;20552;-62
2023/01/24 01:30:34;;;;;;;5.78;4.38;;;;;;;6.18;100.00;103188.28;2090281;28;20662;-61
2023/01/24 01:31:35;;;;;;;5.33;3.90;;;;;;;6.04;100.00;103172.09;2097317;28;20565;-61
2023/01/24 01:32:36;;;;;;;5.72;3.88;;;;;;;6.18;100.00;103183.59;2097973;28;20179;-61
2023/01/24 01:33:36;;;;;;;8.23;3.87;;;;;;;6.20;100.00;103178.53;2090441;28;20184;-61
2023/01/24 01:34:37;;;;;;;5.13;3.90;;;;;;;5.30;100.00;103042.06;2093934;28;20191;-61
2023/01/24 01:35:37;;;;;;;6.47;3.80;;;;;;;6.22;100.00;103187.28;2092592;28;20197;-61
2023/01/24 01:36:38;;;;;;;4.73;3.87;;;;;;;6.12;100.00;103171.19;2092602;28;20274;-60
2023/01/24 01:37:38;;;;;;;6.57;3.60;;;;;;;6.27;100.00;103186.25;2095180;28;20206;-61
2023/01/24 01:38:39;;;;;;;5.47;3.80;;;;;;;6.28;100.00;103187.84;2088744;28;20181;-61
2023/01/24 01:39:39;;;;;;;4.00;3.20;;;;;;;5.83;100.00;103126.50;2089127;28;20215;-61
2023/01/24 01:40:39;;;;;;;7.17;3.83;;;;;;;6.24;100.00;103187.75;2089060;28;20269;-61
2023/01/24 01:41:40;;;;;;;5.70;3.90;;;;;;;6.23;100.00;103197.16;2089103;28;20275;-60
2023/01/24 01:42:46;;;;;;;5.57;3.90;;;;;;;6.26;100.00;103187.41;2089343;28;20191;-61
2023/01/24 01:45:33;;;;;;;4.97;3.90;;;;;;;6.27;100.00;103189.00;2096737;28;20191;-60
2023/01/24 01:46:44;;;;;;;5.65;3.67;;;;;;;6.28;100.00;103182.34;2097911;28;20183;-60
2023/01/24 01:47:44;;;;;;;4.97;3.60;;;;;;;6.26;100.00;103182.69;2097743;28;20573;-60
2023/01/24 01:48:48;;;;;;;5.40;3.40;;;;;;;6.29;100.00;103184.75;2096882;28;20184;-60
2023/01/24 01:50:05;;;;;;;5.95;3.45;;;;;;;5.73;100.00;103097.44;2096944;28;20564;-60
2023/01/24 01:51:43;;;;;;;5.60;3.47;;;;;;;5.89;100.00;103177.44;2089484;28;20198;-60
2023/01/24 01:52:43;;;;;;;8.52;4.10;;;;;;;5.75;100.00;103176.91;2063461;28;20832;-61
2023/01/24 01:53:50;;;;;;;5.60;3.90;;;;;;;5.53;100.00;103131.28;2088532;28;20597;-61
2023/01/24 01:54:53;;;;;;;6.00;4.03;;;;;;;5.83;100.00;103179.59;2088271;28;20175;-61
2023/01/24 01:56:03;;;;;;;7.00;4.28;;;;;;;5.85;100.00;103190.28;2080022;28;20254;-61
2023/01/24 01:57:12;;;;;;;6.07;4.05;;;;;;;5.17;100.00;103064.31;2089643;28;20160;-61
2023/01/24 01:58:12;;;;;;;5.10;3.50;;;;;;;5.79;100.00;103159.34;2089335;28;20183;-60
2023/01/24 01:59:40;;;;;;;5.40;3.90;;;;;;;5.34;100.00;103088.94;2089097;28;20201;-61
2023/01/24 02:00:44;;;;;;;6.30;3.85;;;;;;;4.91;100.00;103036.28;2082937;28;20675;-61
2023/01/24 02:01:49;;;;;;;5.28;3.85;;;;;;;5.84;100.00;103189.44;2088758;28;20187;-61
2023/01/24 02:03:37;;;;;;;5.28;3.65;;;;;;;5.84;100.00;103186.69;2089445;28;20565;-61
2023/01/24 02:04:26;;;;;;;6.13;3.50;;;;;;;5.83;100.00;103189.78;2090965;28;20217;-61
2023/01/24 02:05:27;;;;;;;5.20;3.58;;;;;;;5.90;100.00;103187.31;2094196;28;20181;-61
2023/01/24 02:06:42;;;;;;;5.00;3.50;;;;;;;5.94;100.00;103191.78;2089920;28;20183;-61
2023/01/24 02:07:43;;;;;;;6.65;3.75;;;;;;;5.98;100.00;103191.91;2095316;28;20206;-61
2023/01/24 02:08:44;;;;;;;5.87;4.00;;;;;;;5.90;100.00;103190.84;2089216;28;20191;-60
2023/01/24 02:09:48;;;;;;;4.90;3.70;;;;;;;5.18;100.00;103060.47;2096992;28;20194;-61
2023/01/24 02:12:23;;;;;;;5.50;4.07;;;;;;;5.96;100.00;103183.19;2096764;28;20174;-61
2023/01/24 02:13:23;;;;;;;5.63;3.60;;;;;;;6.01;100.00;103188.47;2089102;28;20172;-61
2023/01/24 02:16:04;;;;;;;6.55;3.95;;;;;;;5.39;100.00;103094.22;2096014;28;20481;-61
2023/01/24 02:17:04;;;;;;;6.05;4.00;;;;;;;6.01;100.00;103197.53;2091738;28;20180;-61
2023/01/24 02:18:07;;;;;;;5.53;3.90;;;;;;;6.02;100.00;103193.66;2096784;28;20191;-60
2023/01/24 02:19:14;;;;;;;6.38;3.85;;;;;;;6.01;100.00;103210.50;2095786;28;20158;-61
2023/01/24 02:20:25;;;;;;;5.30;3.85;;;;;;;6.01;100.00;103191.25;2088621;28;20175;-61
2023/01/24 02:21:26;;;;;;;6.05;3.50;;;;;;;4.98;100.00;103031.06;2088426;28;20215;-61
2023/01/24 02:22:53;;;;;;;6.17;3.60;;;;;;;5.91;100.00;103194.41;2089273;28;20191;-61
2023/01/24 02:24:10;;;;;;;6.20;3.55;;;;;;;5.95;100.00;103203.59;2089850;28;20278;-60
2023/01/24 02:25:21;;;;;;;4.97;3.92;;;;;;;5.96;100.00;103194.19;2095966;28;20235;-61
2023/01/24 02:26:27;;;;;;;5.70;3.90;;;;;;;5.96;100.00;103185.94;2096935;28;20210;-61
2023/01/24 02:27:28;;;;;;;6.63;3.85;;;;;;;5.98;100.00;103187.22;2094898;28;20254;-60
2023/01/24 02:28:28;;;;;;;5.47;3.50;;;;;;;5.95;100.00;103184.34;2088387;28;20183;-61
2023/01/24 02:29:29;;;;;;;5.63;3.97;;;;;;;6.02;100.00;103187.34;2088846;28;20662;-61
2023/01/24 02:30:30;;;;;;;7.10;3.67;;;;;;;5.81;100.00;103167.31;2088787;28;20660;-61
2023/01/24 02:31:58;;;;;;;6.85;3.80;;;;;;;5.82;100.00;103183.50;2089100;28;20203;-60
2023/01/24 02:32:58;;;;;;;5.43;3.92;;;;;;;5.18;100.00;103088.75;2088728;28;20172;-60
2023/01/24 02:33:59;;;;;;;4.63;3.67;;;;;;;5.82;100.00;103182.69;2089155;28;20176;-61
2023/01/24 02:34:59;;;;;;;5.70;4.10;;;;;;;5.69;100.00;103148.78;2087874;28;20192;-61
2023/01/24 02:36:21;;;;;;;5.00;3.20;;;;;;;5.83;100.00;103181.53;2088805;28;20227;-61
2023/01/24 02:37:23;;;;;;;6.13;3.67;;;;;;;5.72;100.00;103181.13;2088785;28;20211;-61
2023/01/24 02:38:28;;;;;;;5.65;3.60;;;;;;;5.76;100.00;103201.34;2088523;28;20751;-61
2023/01/24 02:39:54;;;;;;;6.70;3.63;;;;;;;5.78;100.00;103187.22;2088341;28;20210;-61
2023/01/24 02:41:06;;;;;;;6.45;3.50;;;;;;;5.36;100.00;103109.47;2096934;28;20194;-61
2023/01/24 02:42:11;;;;;;;5.03;3.70;;;;;;;5.91;100.00;103191.66;2097482;28;20214;-61
2023/01/24 02:43:14;;;;;;;7.50;3.60;;;;;;;5.88;100.00;103187.63;2089277;28;20566;-61
2023/01/24 02:44:21;;;;;;;7.03;3.75;;;;;;;5.82;100.00;103183.50;2088816;28;20214;-60
2023/01/24 02:45:25;;;;;;;5.45;3.60;;;;;;;5.78;100.00;103181.72;2093608;28;20191;-60
2023/01/24 02:46:29;;;;;;;4.57;3.60;;;;;;;5.75;100.00;103185.16;2090326;28;20206;-61
2023/01/24 02:47:35;;;;;;;6.43;3.53;;;;;;;5.78;100.00;103193.53;2088852;28;20244;-61
2023/01/24 02:48:35;;;;;;;4.65;3.60;;;;;;;5.20;100.00;103093.91;2089012;28;20582;-61
2023/01/24 02:49:36;;;;;;;6.33;4.07;;;;;;;5.84;100.00;103189.44;2087988;28;20279;-61
2023/01/24 02:53:30;;;;;;;6.20;3.50;;;;;;;5.93;100.00;103184.66;2093125;28;20207;-61
2023/01/24 02:54:30;;;;;;;5.53;3.70;;;;;;;5.99;100.00;103177.00;2090801;28;20480;-61
2023/01/24 02:55:31;;;;;;;4.70;3.43;;;;;;;6.01;100.00;103181.00;2088385;28;20198;-61
2023/01/24 02:58:06;;;;;;;4.65;3.25;;;;;;;6.06;100.00;103185.50;2088647;28;20198;-61
2023/01/24 02:59:06;;;;;;;4.60;3.40;;;;;;;6.06;100.00;103186.31;2093113;28;20286;-60
2023/01/24 03:00:08;;;;;;;6.07;3.20;;;;;;;6.04;100.00;103174.03;2092269;28;20204;-61
2023/01/24 03:01:09;;;;;;;6.57;3.60;;;;;;;5.97;100.00;103182.84;2090893;28;20633;-61
2023/01/24 03:02:09;;;;;;;3.97;2.93;;;;;;;6.00;100.00;103195.13;2087466;28;20272;-61
2023/01/24 03:03:10;;;;;;;6.23;3.30;;;;;;;6.01;100.00;103178.25;2087607;28;20186;-61
2023/01/24 03:04:12;;;;;;;6.07;3.53;;;;;;;6.02;100.00;103182.66;2089022;28;20217;-61
2023/01/24 03:05:12;;;;;;;5.90;3.35;;;;;;;6.03;100.00;103189.75;2095679;28;20491;-61
2023/01/24 03:06:15;;;;;;;4.53;3.33;;;;;;;5.91;100.00;103183.41;2089821;28;20698;-61
2023/01/24 03:07:15;;;;;;;5.70;3.60;;;;;;;5.96;100.00;103181.25;2088617;28;20308;-61
2023/01/24 03:08:16;;;;;;;5.47;3.20;;;;;;;5.99;100.00;103197.06;2087763;28;20206;-61
2023/01/24 03:09:19;;;;;;;4.30;2.90;;;;;;;5.97;100.00;103174.59;2088410;28;20195;-61
2023/01/24 03:10:19;;;;;;;5.05;3.20;;;;;;;5.97;100.00;103191.13;2088146;28;20183;-61
2023/01/24 03:11:20;;;;;;;4.87;3.00;;;;;;;5.98;100.00;103186.41;2088387;28;20279;-61
2023/01/24 03:34:49;;;;;;;4.35;3.10;;;;;;;5.83;100.00;103187.03;2087253;28;20210;-60
2023/01/24 03:35:53;;;;;;;6.40;3.35;;;;;;;5.84;100.00;103183.94;2091426;28;20289;-61
2023/01/24 03:36:54;;;;;;;4.72;3.53;;;;;;;5.64;100.00;103171.00;2094598;28;20644;-61
2023/01/24 03:40:32;;;;;;;5.13;3.20;;;;;;;5.57;100.00;103147.91;2092830;28;20207;-61
2023/01/24 03:41:32;;;;;;;4.80;3.27;;;;;;;5.90;100.00;103179.84;2088069;28;20212;-61
2023/01/24 03:42:34;;;;;;;5.73;3.27;;;;;;;5.91;100.00;103178.72;2089149;28;20244;-61
2023/01/24 03:43:34;;;;;;;6.60;3.20;;;;;;;5.94;100.00;103182.75;2096927;28;20601;-61
2023/01/24 03:44:35;;;;;;;5.10;3.30;;;;;;;5.91;100.00;103183.41;2096316;28;20210;-61
2023/01/24 03:45:37;;;;;;;4.97;3.20;;;;;;;5.96;100.00;103177.69;2089168;28;20216;-61
2023/01/24 03:46:39;;;;;;;4.28;2.97;;;;;;;5.96;100.00;103172.19;2088364;28;20203;-60
2023/01/24 03:47:40;;;;;;;4.55;3.15;;;;;;;5.92;100.00;103179.50;2093624;28;20199;-61
2023/01/24 03:48:40;;;;;;;5.50;3.50;;;;;;;5.92;100.00;103180.31;2096152;28;20189;-61
2023/01/24 03:52:28;;;;;;;5.38;3.47;;;;;;;5.89;100.00;103183.72;2088446;28;20230;-61
2023/01/24 03:53:31;;;;;;;4.53;3.50;;;;;;;5.40;100.00;103104.91;2088588;28;20195;-60
2023/01/24 03:54:31;;;;;;;5.28;3.85;;;;;;;5.95;100.00;103184.34;2088004;28;20191;-61
2023/01/24 03:55:32;;;;;;;4.20;3.13;;;;;;;5.97;100.00;103173.78;2087930;28;20309;-61
2023/01/24 03:56:32;;;;;;;4.30;3.10;;;;;;;5.18;100.00;103065.97;2091892;28;20190;-60
2023/01/24 03:57:33;;;;;;;6.10;3.20;;;;;;;4.74;100.00;103012.50;2088937;28;20179;-60
2023/01/24 03:58:33;;;;;;;4.33;3.20;;;;;;;5.75;100.00;103180.44;2094707;28;20649;-61
2023/01/24 03:59:33;;;;;;;4.73;3.00;;;;;;;5.65;100.00;103174.56;2096518;28;20218;-61
2023/01/24 04:00:35;;;;;;;8.53;3.70;;;;;;;5.64;100.00;103184.75;2089626;28;20219;-61
2023/01/24 04:01:35;;;;;;;8.68;5.78;;;;;;;5.67;100.00;103181.34;2089524;28;20672;-60
2023/01/24 04:02:35;;;;;;;5.40;3.93;;;;;;;5.75;100.00;103177.69;2089788;28;20568;-61
2023/01/24 04:03:36;;;;;;;7.33;3.83;;;;;;;5.19;100.00;103089.56;2089847;28;20700;-61
2023/01/24 04:05:55;;;;;;;5.55;3.40;;;;;;;5.88;100.00;103184.88;2090116;28;20259;-60
2023/01/24 04:06:55;;;;;;;6.07;3.50;;;;;;;5.84;100.00;103177.66;2089983;28;20201;-61
2023/01/24 04:07:56;;;;;;;5.07;3.63;;;;;;;5.84;100.00;103181.19;2090419;28;20215;-61
2023/01/24 04:08:56;;;;;;;4.63;3.30;;;;;;;5.85;100.00;103179.25;2089604;28;20180;-60
2023/01/24 04:09:58;;;;;;;4.97;3.07;;;;;;;5.86;100.00;103180.88;2089781;28;20541;-60
2023/01/24 04:10:59;;;;;;;5.18;3.58;;;;;;;5.90;100.00;103181.81;2089770;28;20249;-61
2023/01/24 04:11:59;;;;;;;4.63;3.50;;;;;;;5.85;100.00;103171.78;2090125;28;20195;-60
2023/01/24 04:13:00;;;;;;;5.73;3.57;;;;;;;5.85;100.00;103171.78;2093915;28;20205;-61
2023/01/24 04:14:00;;;;;;;5.90;3.57;;;;;;;5.64;100.00;103129.72;2100569;28;20194;-61
2023/01/24 04:15:01;;;;;;;5.27;3.70;;;;;;;5.93;100.00;103168.16;2102235;28;20656;-60
2023/01/24 04:16:01;;;;;;;4.90;3.37;;;;;;;5.95;100.00;103178.84;2089668;28;20601;-60
2023/01/24 04:17:02;;;;;;;5.73;3.20;;;;;;;5.92;100.00;103179.50;2090513;28;20222;-61
2023/01/24 04:18:04;;;;;;;7.27;3.40;;;;;;;5.70;100.00;103163.34;2097316;28;20196;-61
2023/01/24 04:19:04;;;;;;;5.18;3.28;;;;;;;5.80;100.00;103176.72;2097452;28;20284;-61
2023/01/24 04:20:06;;;;;;;5.27;3.90;;;;;;;5.51;100.00;103130.84;2092716;28;20208;-61
2023/01/24 04:21:06;;;;;;;6.53;3.63;;;;;;;5.76;100.00;103168.31;2090202;28;20234;-61
2023/01/24 04:22:07;;;;;;;5.30;3.77;;;;;;;5.80;100.00;103173.97;2092785;28;20199;-60
2023/01/24 04:23:08;;;;;;;6.10;3.40;;;;;;;5.75;100.00;103174.94;2096653;28;20179;-61
2023/01/24 04:24:08;;;;;;;5.35;4.05;;;;;;;5.76;100.00;103184.00;2089954;28;20185;-61
2023/01/24 04:25:09;;;;;;;6.03;3.60;;;;;;;5.73;100.00;103184.66;2097585;28;20206;-61
2023/01/24 04:26:10;;;;;;;5.05;3.58;;;;;;;5.71;100.00;103181.47;2089988;28;20264;-61
2023/01/24 04:27:11;;;;;;;5.97;3.47;;;;;;;5.72;100.00;103183.88;2090082;28;20204;-61
2023/01/24 04:28:11;;;;;;;5.17;3.60;;;;;;;5.70;100.00;103180.63;2095168;28;20207;-61
2023/01/24 04:29:11;;;;;;;5.80;4.17;;;;;;;5.74;100.00;103184.34;2097405;28;20457;-61
2023/01/24 04:30:13;;;;;;;7.10;3.93;;;;;;;5.06;100.00;103077.69;2095049;28;20404;-60
2023/01/24 04:31:14;;;;;;;5.32;3.85;;;;;;;5.77;100.00;103182.84;2089883;28;20193;-61
2023/01/24 04:32:14;;;;;;;6.00;3.80;;;;;;;5.81;100.00;103189.31;2089652;28;20218;-61
2023/01/24 04:33:15;;;;;;;7.63;3.50;;;;;;;5.75;100.00;103176.91;2090353;28;20671;-60
2023/01/24 04:34:15;;;;;;;4.83;3.23;;;;;;;5.85;100.00;103184.75;2097545;28;20248;-61
2023/01/24 04:35:21;;;;;;;5.17;3.53;;;;;;;5.81;100.00;103172.81;2097068;28;20664;-61
2023/01/24 04:36:22;;;;;;;5.13;3.58;;;;;;;5.77;100.00;103166.34;2091918;28;20202;-61
2023/01/24 04:37:22;;;;;;;5.93;3.83;;;;;;;5.91;100.00;103186.97;2094811;28;20213;-61
2023/01/24 04:38:23;;;;;;;5.00;3.80;;;;;;;5.88;100.00;103186.81;2093852;28;20230;-61
2023/01/24 04:39:23;;;;;;;7.73;4.20;;;;;;;5.44;100.00;103125.06;2089257;28;20218;-61
2023/01/24 04:40:23;;;;;;;4.93;4.10;;;;;;;5.23;100.00;103085.00;2090447;28;20585;-61
2023/01/24 04:41:24;;;;;;;5.03;3.13;;;;;;;5.85;100.00;103187.50;2098759;28;20656;-61
2023/01/24 04:42:24;;;;;;;4.80;3.77;;;;;;;5.86;100.00;103183.63;2090088;28;20274;-61
2023/01/24 04:43:25;;;;;;;4.57;3.37;;;;;;;5.93;100.00;103183.84;2089769;28;20223;-61
2023/01/24 04:44:25;;;;;;;5.50;3.40;;;;;;;5.72;100.00;103148.09;2089514;28;20242;-61
2023/01/24 04:45:26;;;;;;;6.43;3.77;;;;;;;5.92;100.00;103180.31;2089090;28;20256;-60
2023/01/24 04:46:28;;;;;;;6.07;3.93;;;;;;;5.94;100.00;103185.50;2092691;28;20203;-61
2023/01/24 04:47:28;;;;;;;5.72;3.70;;;;;;;5.92;100.00;103185.81;2098048;28;20187;-61
2023/01/24 04:48:28;;;;;;;6.70;3.80;;;;;;;5.94;100.00;103182.75;2095995;28;20217;-61
2023/01/24 04:49:29;;;;;;;5.63;3.57;;;;;;;5.39;100.00;103075.75;2089189;28;20637;-61
2023/01/24 04:50:29;;;;;;;5.90;3.77;;;;;;;6.01;100.00;103174.72;2089844;28;20632;-61
2023/01/24 04:51:30;;;;;;;5.00;3.60;;;;;;;6.04;100.00;103174.84;2096850;28;20206;-61
2023/01/24 04:52:30;;;;;;;5.83;3.70;;;;;;;6.00;100.00;103173.91;2091582;28;20210;-61
2023/01/24 04:53:30;;;;;;;5.73;3.73;;;;;;;5.88;100.00;103173.06;2089989;28;20624;-61
2023/01/24 04:54:31;;;;;;;6.33;4.20;;;;;;;5.79;100.00;103156.59;2089037;28;20202;-60
2023/01/24 04:55:31;;;;;;;5.70;3.90;;;;;;;5.94;100.00;103164.25;2091735;28;20179;-61
2023/01/24 04:56:32;;;;;;;5.80;4.03;;;;;;;6.01;100.00;103172.75;2096655;28;20187;-64
2023/01/24 04:57:32;;;;;;;5.20;3.90;;;;;;;5.78;100.00;103133.00;2094137;28;20187;-70
2023/01/24 04:58:34;;;;;;;5.20;3.60;;;;;;;6.09;100.00;103179.31;2096843;28;20235;-70
2023/01/24 04:59:34;;;;;;;4.90;3.67;;;;;;;6.09;100.00;103176.56;2098407;28;20271;-69
2023/01/24 05:00:35;;;;;;;5.20;4.00;;;;;;;6.10;100.00;103170.72;2099426;28;20195;-69
2023/01/24 05:01:35;;;;;;;6.93;3.87;;;;;;;5.68;100.00;103102.34;2092080;28;20696;-68
2023/01/24 05:02:37;;;;;;;6.10;4.10;;;;;;;6.21;100.00;103177.38;2095260;28;20183;-69
2023/01/24 05:03:37;;;;;;;5.20;3.35;;;;;;;6.21;100.00;103187.63;2096995;28;20211;-64
2023/01/24 05:04:39;;;;;;;5.67;3.83;;;;;;;6.15;100.00;103166.97;2086291;28;20181;-67
2023/01/24 05:05:39;;;;;;;8.65;3.67;;;;;;;6.24;100.00;103178.66;2087792;28;20572;-65
2023/01/24 05:06:39;;;;;;;8.63;4.33;;;;;;;6.29;100.00;103181.19;2097005;28;20263;-60
2023/01/24 05:07:40;;;;;;;6.00;3.73;;;;;;;6.26;100.00;103181.88;2097528;28;20252;-60
2023/01/24 05:08:40;;;;;;;7.20;3.87;;;;;;;6.25;100.00;103181.06;2095558;28;20239;-60
2023/01/24 05:09:41;;;;;;;7.60;4.00;;;;;;;5.96;100.00;103145.47;2095642;28;20201;-61
2023/01/24 05:10:41;;;;;;;9.43;4.10;;;;;;;6.10;100.00;103167.97;2096627;28;20636;-67
2023/01/24 05:11:42;;;;;;;9.03;5.67;;;;;;;6.22;100.00;103191.97;2096745;28;20213;-60
2023/01/24 05:12:42;;;;;;;8.93;4.30;;;;;;;6.24;100.00;103193.25;2096786;28;20211;-60
2023/01/24 05:13:42;;;;;;;6.97;4.93;;;;;;;6.21;100.00;103193.13;2096844;28;20178;-60
2023/01/24 05:14:43;;;;;;;7.07;3.90;;;;;;;6.22;100.00;103198.31;2097637;28;20213;-62
2023/01/24 05:15:50;;;;;;;8.97;3.90;;;;;;;5.67;100.00;103103.47;2096997;28;20277;-61
2023/01/24 05:16:51;;;;;;;6.15;3.72;;;;;;;6.15;100.00;103191.75;2097004;28;20668;-61
2023/01/24 05:17:52;;;;;;;5.57;3.80;;;;;;;6.01;100.00;103194.78;2096754;28;20553;-62
2023/01/24 05:18:52;;;;;;;5.87;3.87;;;;;;;5.93;100.00;103200.38;2086658;28;20243;-62
2023/01/24 05:19:52;;;;;;;8.87;4.13;;;;;;;5.97;100.00;103196.63;2087199;28;20594;-66
2023/01/24 05:20:53;;;;;;;10.77;4.40;;;;;;;6.02;100.00;103204.66;2096625;28;20191;-66
2023/01/24 05:21:53;;;;;;;6.10;4.00;;;;;;;6.15;100.00;103214.56;2096481;28;20183;-66
2023/01/24 05:22:57;;;;;;;8.10;3.93;;;;;;;5.59;100.00;103118.94;2097617;28;20183;-66
2023/01/24 05:23:58;;;;;;;7.60;4.97;;;;;;;6.12;100.00;103190.47;2096443;28;20200;-63
2023/01/24 05:24:58;;;;;;;8.40;4.93;;;;;;;6.12;100.00;103190.47;2086771;28;20203;-63
2023/01/24 05:26:00;;;;;;;7.83;5.17;;;;;;;5.61;100.00;103099.34;2087697;28;20667;-62
2023/01/24 05:27:00;;;;;;;10.68;4.80;;;;;;;6.24;100.00;103207.00;2095924;28;20271;-64